createdAt,value
2019-05-21T00:00:13.221Z,11.40
2019-05-21T00:02:35.294Z,11.50
2019-05-21T00:05:08.158Z,11.40
2019-05-21T00:07:38.368Z,11.40
2019-05-21T00:10:09.118Z,11.40
2019-05-21T00:12:45.182Z,11.50
2019-05-21T00:15:14.773Z,11.50
2019-05-21T00:17:55.028Z,11.50
2019-05-21T00:20:27.928Z,11.50
2019-05-21T00:23:00.816Z,11.40
2019-05-21T00:25:31.731Z,11.40
2019-05-21T00:28:42.043Z,11.40
2019-05-21T00:31:47.484Z,11.40
2019-05-21T00:34:52.802Z,11.30
2019-05-21T00:37:57.751Z,11.40
2019-05-21T00:41:02.602Z,11.30
2019-05-21T00:43:55.631Z,11.30
2019-05-21T00:46:25.087Z,11.40
2019-05-21T00:49:11.189Z,11.30
2019-05-21T00:52:08.518Z,11.30
2019-05-21T00:54:37.999Z,11.30
2019-05-21T00:57:23.041Z,11.20
2019-05-21T00:59:54.201Z,11.20
2019-05-21T01:06:10.781Z,11.20
2019-05-21T01:08:51.104Z,11.20
2019-05-21T01:11:44.935Z,11.20
2019-05-21T01:14:25.329Z,11.20
2019-05-21T01:17:06.103Z,11.20
2019-05-21T01:19:56.322Z,11.20
2019-05-21T01:22:28.320Z,11.20
2019-05-21T01:25:07.735Z,11.10
2019-05-21T01:28:26.806Z,11.20
2019-05-21T01:33:52.194Z,11.10
2019-05-21T01:36:27.704Z,11.20
2019-05-21T01:39:31.909Z,11.10
2019-05-21T01:42:09.075Z,11.00
2019-05-21T01:44:40.858Z,11.00
2019-05-21T01:47:11.408Z,11.00
2019-05-21T01:49:44.859Z,11.00
2019-05-21T01:55:20.707Z,11.00
2019-05-21T01:58:04.001Z,10.90
2019-05-21T02:00:33.569Z,10.90
2019-05-21T02:03:12.829Z,10.90
2019-05-21T02:06:03.298Z,10.90
2019-05-21T02:08:36.816Z,10.90
2019-05-21T02:11:31.253Z,10.90
2019-05-21T02:14:05.129Z,10.80
2019-05-21T02:16:39.735Z,10.80
2019-05-21T02:19:25.830Z,10.80
2019-05-21T02:21:53.141Z,10.70
2019-05-21T02:24:22.565Z,10.70
2019-05-21T02:26:57.521Z,10.70
2019-05-21T02:29:42.479Z,10.80
2019-05-21T02:32:32.047Z,10.70
2019-05-21T02:35:03.975Z,10.60
2019-05-21T02:37:33.936Z,10.70
2019-05-21T02:40:10.630Z,10.70
2019-05-21T02:42:40.682Z,10.60
2019-05-21T02:45:16.393Z,10.70
2019-05-21T02:47:47.472Z,10.60
2019-05-21T02:50:18.233Z,10.60
2019-05-21T02:52:58.794Z,10.60
2019-05-21T02:55:34.718Z,10.60
2019-05-21T02:58:22.552Z,10.60
2019-05-21T03:01:24.190Z,10.60
2019-05-21T03:04:18.958Z,10.50
2019-05-21T03:07:14.073Z,10.60
2019-05-21T03:13:17.992Z,10.60
2019-05-21T03:15:53.394Z,10.60
2019-05-21T03:18:25.804Z,10.60
2019-05-21T03:21:14.662Z,10.60
2019-05-21T03:23:45.108Z,10.60
2019-05-21T03:26:18.581Z,10.60
2019-05-21T03:29:01.408Z,10.60
2019-05-21T03:31:52.731Z,10.60
2019-05-21T03:34:24.002Z,10.60
2019-05-21T03:37:04.626Z,10.60
2019-05-21T03:39:38.655Z,10.60
2019-05-21T03:42:12.436Z,10.60
2019-05-21T03:44:59.019Z,10.60
2019-05-21T03:47:19.666Z,10.60
2019-05-21T03:50:07.461Z,10.50
2019-05-21T03:52:41.091Z,10.50
2019-05-21T03:55:30.489Z,10.50
2019-05-21T03:58:04.047Z,10.50
2019-05-21T04:00:46.351Z,10.50
2019-05-21T04:03:18.329Z,10.50
2019-05-21T04:06:00.877Z,10.50
2019-05-21T04:08:32.789Z,10.40
2019-05-21T04:11:30.865Z,10.40
2019-05-21T04:14:00.438Z,10.40
2019-05-21T04:16:46.431Z,10.40
2019-05-21T04:19:44.434Z,10.40
2019-05-21T04:22:28.768Z,10.40
2019-05-21T04:31:03.723Z,10.40
2019-05-21T04:33:50.827Z,10.40
2019-05-21T04:36:27.244Z,10.40
2019-05-21T04:39:15.417Z,10.40
2019-05-21T04:41:51.800Z,10.50
2019-05-21T04:44:25.138Z,10.50
2019-05-21T04:47:00.511Z,10.50
2019-05-21T04:49:31.931Z,10.50
2019-05-21T04:55:44.485Z,10.50
2019-05-21T04:58:19.761Z,10.50
2019-05-21T05:01:09.627Z,10.40
2019-05-21T05:03:59.920Z,10.40
2019-05-21T05:06:47.099Z,10.40
2019-05-21T05:09:20.112Z,10.50
2019-05-21T05:11:54.906Z,10.40
2019-05-21T05:14:27.545Z,10.40
2019-05-21T05:17:02.334Z,10.40
2019-05-21T05:19:32.435Z,10.50
2019-05-21T05:22:02.161Z,10.50
2019-05-21T05:25:03.879Z,10.50
2019-05-21T05:27:36.734Z,10.50
2019-05-21T05:30:29.668Z,10.50
2019-05-21T05:32:59.291Z,10.50
2019-05-21T05:35:57.659Z,10.50
2019-05-21T05:39:18.285Z,10.60
2019-05-21T05:42:28.776Z,10.50
2019-05-21T05:45:08.278Z,10.50
2019-05-21T05:47:52.242Z,10.50
2019-05-21T05:50:25.082Z,10.50
2019-05-21T05:53:01.800Z,10.50
2019-05-21T05:58:27.541Z,10.50
2019-05-21T06:00:59.014Z,10.50
2019-05-21T06:03:28.731Z,10.50
2019-05-21T06:08:54.271Z,10.60
2019-05-21T06:11:40.339Z,10.60
2019-05-21T06:14:18.254Z,10.60
2019-05-21T06:17:09.475Z,10.70
2019-05-21T06:19:48.589Z,10.60
2019-05-21T06:22:27.679Z,10.60
2019-05-21T06:25:06.898Z,10.60
2019-05-21T06:27:54.526Z,10.60
2019-05-21T06:30:24.977Z,10.60
2019-05-21T06:32:56.331Z,10.60
2019-05-21T06:35:25.685Z,10.60
2019-05-21T06:38:16.173Z,10.60
2019-05-21T06:40:34.483Z,10.60
2019-05-21T06:43:06.445Z,10.60
2019-05-21T06:45:44.260Z,10.60
2019-05-21T06:48:16.360Z,10.60
2019-05-21T06:50:48.575Z,10.70
2019-05-21T06:53:26.089Z,10.70
2019-05-21T06:56:35.674Z,10.70
2019-05-21T06:59:06.690Z,10.70
2019-05-21T07:01:49.467Z,10.70
2019-05-21T07:07:07.490Z,10.80
2019-05-21T07:09:49.371Z,10.80
2019-05-21T07:12:56.841Z,10.80
2019-05-21T07:15:26.813Z,10.80
2019-05-21T07:18:05.747Z,10.80
2019-05-21T07:20:49.093Z,10.70
2019-05-21T07:23:42.373Z,10.80
2019-05-21T07:26:17.217Z,10.80
2019-05-21T07:28:49.846Z,10.80
2019-05-21T07:31:43.049Z,10.90
2019-05-21T07:34:37.359Z,10.80
2019-05-21T07:37:22.030Z,10.90
2019-05-21T07:39:51.591Z,10.90
2019-05-21T07:42:41.528Z,10.90
2019-05-21T07:45:16.790Z,11.00
2019-05-21T07:48:24.102Z,11.00
2019-05-21T07:50:59.321Z,11.00
2019-05-21T07:53:41.817Z,11.10
2019-05-21T07:56:30.724Z,11.10
2019-05-21T07:59:22.511Z,11.10
2019-05-21T08:02:14.412Z,11.20
2019-05-21T08:05:29.817Z,11.10
2019-05-21T08:08:08.832Z,11.20
2019-05-21T08:10:45.941Z,11.20
2019-05-21T08:13:27.115Z,11.20
2019-05-21T08:16:02.302Z,11.20
2019-05-21T08:18:34.879Z,11.30
2019-05-21T08:21:11.592Z,11.30
2019-05-21T08:23:48.810Z,11.30
2019-05-21T08:26:21.155Z,11.30
2019-05-21T08:28:52.957Z,11.30
2019-05-21T08:31:40.595Z,11.40
2019-05-21T08:34:16.750Z,11.40
2019-05-21T08:36:48.471Z,11.40
2019-05-21T08:39:29.457Z,11.40
2019-05-21T08:42:02.281Z,11.50
2019-05-21T08:44:52.062Z,11.60
2019-05-21T08:47:21.801Z,11.70
2019-05-21T08:50:01.164Z,11.80
2019-05-21T08:55:19.110Z,11.90
2019-05-21T08:58:05.594Z,12.00
2019-05-21T09:00:36.615Z,12.10
2019-05-21T09:03:18.790Z,12.10
2019-05-21T09:06:11.602Z,12.10
2019-05-21T09:08:43.177Z,12.10
2019-05-21T09:11:14.203Z,12.20
2019-05-21T09:13:47.752Z,12.20
2019-05-21T09:16:17.211Z,12.30
2019-05-21T09:18:48.056Z,12.40
2019-05-21T09:21:18.205Z,12.40
2019-05-21T09:23:51.513Z,12.50
2019-05-21T09:26:21.397Z,12.60
2019-05-21T09:28:53.943Z,12.60
2019-05-21T09:31:29.037Z,12.70
2019-05-21T09:33:59.284Z,12.80
2019-05-21T09:36:29.805Z,12.80
2019-05-21T09:39:20.937Z,12.90
2019-05-21T09:41:47.058Z,13.00
2019-05-21T09:44:16.973Z,12.90
2019-05-21T09:46:50.570Z,13.00
2019-05-21T09:49:20.917Z,13.00
2019-05-21T09:51:55.516Z,13.00
2019-05-21T09:54:25.146Z,13.00
2019-05-21T09:57:00.877Z,12.90
2019-05-21T09:59:53.372Z,13.10
2019-05-21T10:02:29.569Z,13.10
2019-05-21T10:05:00.467Z,13.20
2019-05-21T10:07:50.974Z,13.30
2019-05-21T10:10:29.667Z,13.20
2019-05-21T10:13:24.309Z,13.20
2019-05-21T10:16:01.598Z,13.10
2019-05-21T10:18:43.519Z,13.00
2019-05-21T10:21:19.910Z,13.00
2019-05-21T10:24:04.336Z,13.00
2019-05-21T10:26:39.945Z,13.00
2019-05-21T10:29:15.508Z,13.00
2019-05-21T10:31:51.180Z,13.00
2019-05-21T10:34:23.230Z,13.20
2019-05-21T10:36:54.959Z,13.20
2019-05-21T10:39:35.045Z,13.20
2019-05-21T10:42:05.337Z,13.40
2019-05-21T10:44:48.440Z,13.40
2019-05-21T10:47:36.736Z,13.30
2019-05-21T10:50:11.867Z,13.20
2019-05-21T10:52:47.476Z,13.10
2019-05-21T10:55:17.696Z,13.10
2019-05-21T10:57:48.433Z,13.10
2019-05-21T11:00:23.073Z,13.10
2019-05-21T11:03:04.823Z,13.30
2019-05-21T11:06:09.726Z,13.50
2019-05-21T11:08:30.468Z,13.60
2019-05-21T11:11:11.690Z,13.60
2019-05-21T11:13:41.618Z,13.50
2019-05-21T11:16:13.947Z,13.70
2019-05-21T11:18:58.418Z,13.70
2019-05-21T11:21:53.554Z,13.80
2019-05-21T11:24:38.799Z,13.70
2019-05-21T11:27:16.512Z,13.70
2019-05-21T11:30:08.900Z,13.60
2019-05-21T11:32:55.147Z,13.50
2019-05-21T11:35:28.259Z,13.30
2019-05-21T11:38:17.879Z,13.30
2019-05-21T11:40:56.954Z,13.40
2019-05-21T11:43:29.744Z,13.50
2019-05-21T11:46:03.147Z,13.50
2019-05-21T11:48:43.503Z,13.60
2019-05-21T11:51:32.412Z,13.70
2019-05-21T11:54:02.657Z,13.60
2019-05-21T11:56:45.676Z,13.60
2019-05-21T11:59:17.804Z,13.50
2019-05-21T12:01:55.439Z,13.40
2019-05-21T12:04:29.505Z,13.50
2019-05-21T12:07:11.403Z,13.50
2019-05-21T12:09:53.672Z,13.30
2019-05-21T12:12:35.216Z,13.30
2019-05-21T12:15:09.300Z,13.30
2019-05-21T12:17:38.547Z,13.20
2019-05-21T12:23:06.994Z,13.40
2019-05-21T12:25:36.497Z,13.40
2019-05-21T12:28:21.546Z,13.50
2019-05-21T12:30:55.216Z,13.60
2019-05-21T12:33:28.729Z,13.50
2019-05-21T12:36:01.030Z,13.50
2019-05-21T12:39:14.356Z,13.50
2019-05-21T12:41:41.812Z,13.40
2019-05-21T12:44:21.849Z,13.30
2019-05-21T12:46:59.357Z,13.10
2019-05-21T12:49:29.644Z,12.90
2019-05-21T12:51:59.199Z,12.90
2019-05-21T12:54:33.599Z,12.90
2019-05-21T12:57:09.953Z,12.90
2019-05-21T12:59:52.308Z,13.00
2019-05-21T13:02:35.706Z,13.20
2019-05-21T13:05:06.574Z,13.00
2019-05-21T13:07:48.111Z,13.00
2019-05-21T13:10:18.948Z,12.90
2019-05-21T13:12:52.857Z,13.00
2019-05-21T13:15:26.023Z,13.00
2019-05-21T13:18:06.349Z,13.00
2019-05-21T13:20:36.133Z,12.90
2019-05-21T13:23:13.948Z,13.00
2019-05-21T13:25:49.571Z,13.10
2019-05-21T13:28:24.776Z,13.10
2019-05-21T13:31:40.322Z,13.00
2019-05-21T13:34:09.762Z,13.10
2019-05-21T13:36:53.953Z,13.20
2019-05-21T13:39:25.844Z,13.10
2019-05-21T13:42:01.122Z,13.20
2019-05-21T13:44:31.478Z,13.30
2019-05-21T13:47:05.879Z,13.10
2019-05-21T13:49:38.292Z,13.20
2019-05-21T13:52:11.432Z,13.20
2019-05-21T13:54:44.218Z,13.30
2019-05-21T13:57:27.130Z,13.20
2019-05-21T14:00:16.437Z,13.20
2019-05-21T14:02:46.053Z,13.20
2019-05-21T14:05:30.204Z,13.10
2019-05-21T14:08:11.426Z,13.10
2019-05-21T14:10:45.885Z,13.00
2019-05-21T14:13:17.931Z,13.10
2019-05-21T14:15:54.522Z,13.10
2019-05-21T14:18:31.423Z,13.20
2019-05-21T14:21:07.208Z,13.10
2019-05-21T14:23:37.966Z,13.00
2019-05-21T14:26:11.352Z,13.00
2019-05-21T14:28:43.734Z,13.00
2019-05-21T14:31:16.894Z,13.00
2019-05-21T14:33:59.006Z,12.90
2019-05-21T14:36:29.648Z,13.00
2019-05-21T14:39:06.459Z,13.10
2019-05-21T14:41:37.786Z,13.10
2019-05-21T14:44:14.981Z,13.00
2019-05-21T14:46:59.533Z,13.00
2019-05-21T14:49:29.875Z,12.80
2019-05-21T14:52:16.573Z,12.90
2019-05-21T14:54:52.532Z,12.90
2019-05-21T14:57:22.422Z,13.00
2019-05-21T15:00:00.132Z,12.80
2019-05-21T15:02:36.919Z,12.90
2019-05-21T15:05:06.377Z,12.80
2019-05-21T15:07:52.519Z,12.80
2019-05-21T15:10:25.987Z,12.70
2019-05-21T15:12:58.301Z,12.60
2019-05-21T15:15:30.829Z,12.70
2019-05-21T15:18:07.618Z,12.60
2019-05-21T15:21:14.127Z,12.50
2019-05-21T15:24:03.117Z,12.60
2019-05-21T15:26:44.260Z,12.60
2019-05-21T15:29:16.826Z,12.60
2019-05-21T15:36:35.875Z,12.50
2019-05-21T15:38:12.750Z,12.40
2019-05-21T15:41:10.175Z,12.50
2019-05-21T15:43:33.298Z,12.50
2019-05-21T15:46:09.994Z,12.60
2019-05-21T15:48:53.982Z,12.40
2019-05-21T15:51:37.977Z,12.40
2019-05-21T15:54:10.089Z,12.30
2019-05-21T15:56:51.022Z,12.30
2019-05-21T15:59:54.977Z,12.20
2019-05-21T16:02:34.421Z,12.20
2019-05-21T16:05:30.189Z,12.20
2019-05-21T16:08:21.608Z,12.20
2019-05-21T16:10:51.123Z,12.20
2019-05-21T16:13:20.755Z,12.30
2019-05-21T16:16:15.636Z,12.30
2019-05-21T16:18:46.042Z,12.40
2019-05-21T16:21:34.989Z,12.30
2019-05-21T16:24:06.996Z,12.30
2019-05-21T16:26:40.787Z,12.20
2019-05-21T16:29:12.555Z,12.30
2019-05-21T16:31:57.730Z,12.30
2019-05-21T16:34:29.815Z,12.30
2019-05-21T16:37:02.044Z,12.10
2019-05-21T16:39:31.649Z,12.10
2019-05-21T16:42:01.818Z,12.10
2019-05-21T16:44:44.962Z,12.10
2019-05-21T16:47:46.435Z,12.00
2019-05-21T16:50:51.128Z,11.90
2019-05-21T16:53:28.527Z,11.90
2019-05-21T16:56:05.300Z,12.00
2019-05-21T16:58:38.186Z,12.00
2019-05-21T17:04:38.558Z,12.10
2019-05-21T17:06:39.604Z,12.10
2019-05-21T17:09:22.825Z,12.00
2019-05-21T17:12:00.455Z,12.00
2019-05-21T17:14:36.983Z,11.90
2019-05-21T17:17:10.962Z,11.90
2019-05-21T17:19:43.065Z,11.90
2019-05-21T17:22:15.264Z,12.00
2019-05-21T17:24:58.245Z,11.90
2019-05-21T17:27:30.192Z,11.90
2019-05-21T17:30:01.297Z,11.90
2019-05-21T17:32:31.641Z,11.90
2019-05-21T17:35:01.500Z,11.90
2019-05-21T17:37:31.450Z,11.90
2019-05-21T17:40:01.110Z,11.90
2019-05-21T17:42:31.161Z,11.90
2019-05-21T17:45:13.437Z,11.90
2019-05-21T17:47:45.432Z,11.90
2019-05-21T17:50:16.579Z,11.90
2019-05-21T17:52:46.186Z,11.90
2019-05-21T17:55:22.729Z,11.90
2019-05-21T17:58:01.926Z,11.90
2019-05-21T18:00:57.442Z,11.80
2019-05-21T18:04:01.175Z,11.90
2019-05-21T18:06:34.070Z,11.80
2019-05-21T18:09:28.146Z,11.80
2019-05-21T18:12:53.804Z,11.80
2019-05-21T18:14:38.809Z,11.90
2019-05-21T18:17:16.838Z,11.80
2019-05-21T18:19:46.887Z,11.80
2019-05-21T18:22:27.197Z,11.80
2019-05-21T18:25:02.979Z,11.80
2019-05-21T18:27:36.303Z,11.70
2019-05-21T18:30:08.159Z,11.70
2019-05-21T18:32:44.596Z,11.70
2019-05-21T18:35:18.215Z,11.70
2019-05-21T18:37:52.638Z,11.60
2019-05-21T18:40:31.899Z,11.70
2019-05-21T18:43:15.464Z,11.60
2019-05-21T18:45:51.880Z,11.60
2019-05-21T18:48:27.630Z,11.60
2019-05-21T18:51:16.373Z,11.60
2019-05-21T18:53:47.608Z,11.60
2019-05-21T18:56:29.194Z,11.50
2019-05-21T18:58:59.345Z,11.50
2019-05-21T19:01:32.485Z,11.50
2019-05-21T19:04:03.419Z,11.50
2019-05-21T19:06:36.135Z,11.50
2019-05-21T19:09:08.803Z,11.60
2019-05-21T19:11:41.475Z,11.60
2019-05-21T19:14:15.002Z,11.60
2019-05-21T19:16:44.981Z,11.50
2019-05-21T19:19:14.463Z,11.60
2019-05-21T19:21:49.593Z,11.60
2019-05-21T19:24:26.373Z,11.60
2019-05-21T19:26:58.777Z,11.60
2019-05-21T19:29:47.126Z,11.60
2019-05-21T19:32:28.298Z,11.50
2019-05-21T19:35:04.465Z,11.50
2019-05-21T19:37:38.295Z,11.50
2019-05-21T19:40:14.651Z,11.50
2019-05-21T19:42:54.267Z,11.50
2019-05-21T19:45:31.331Z,11.50
2019-05-21T19:48:09.454Z,11.50
2019-05-21T19:51:09.164Z,11.50
2019-05-21T19:53:33.806Z,11.50
2019-05-21T19:56:07.979Z,11.50
2019-05-21T19:58:38.214Z,11.50
2019-05-21T20:01:17.772Z,11.40
2019-05-21T20:03:55.034Z,11.40
2019-05-21T20:06:25.349Z,11.40
2019-05-21T20:08:55.186Z,11.40
2019-05-21T20:11:37.453Z,11.40
2019-05-21T20:14:07.852Z,11.40
2019-05-21T20:16:37.951Z,11.40
2019-05-21T20:19:09.860Z,11.40
2019-05-21T20:21:42.471Z,11.40
2019-05-21T20:24:13.546Z,11.40
2019-05-21T20:26:45.063Z,11.40
2019-05-21T20:29:17.411Z,11.40
2019-05-21T20:31:50.450Z,11.40
2019-05-21T20:34:26.347Z,11.30
2019-05-21T20:36:55.827Z,11.30
2019-05-21T20:39:26.915Z,11.30
2019-05-21T20:42:00.489Z,11.30
2019-05-21T20:44:38.942Z,11.30
2019-05-21T20:47:24.244Z,11.30
2019-05-21T20:49:51.160Z,11.30
2019-05-21T20:52:21.166Z,11.30
2019-05-21T20:54:53.525Z,11.30
2019-05-21T20:57:24.979Z,11.30
2019-05-21T20:59:55.266Z,11.40
2019-05-21T21:02:26.345Z,11.30
2019-05-21T21:04:55.988Z,11.30
2019-05-21T21:07:25.742Z,11.30
2019-05-21T21:09:55.698Z,11.40
2019-05-21T21:12:26.626Z,11.40
2019-05-21T21:14:57.029Z,11.30
2019-05-21T21:17:30.850Z,11.30
2019-05-21T21:20:01.277Z,11.30
2019-05-21T21:22:32.528Z,11.30
2019-05-21T21:25:03.412Z,11.30
2019-05-21T21:27:36.195Z,11.30
2019-05-21T21:30:06.578Z,11.30
2019-05-21T21:32:36.509Z,11.30
2019-05-21T21:35:09.683Z,11.30
2019-05-21T21:37:39.482Z,11.30
2019-05-21T21:40:13.227Z,11.30
2019-05-21T21:42:44.113Z,11.40
2019-05-21T21:45:14.827Z,11.30
2019-05-21T21:47:44.313Z,11.30
2019-05-21T21:50:14.341Z,11.30
2019-05-21T21:52:44.273Z,11.30
2019-05-21T21:55:15.265Z,11.30
2019-05-21T21:57:45.153Z,11.30
2019-05-21T22:01:20.743Z,11.30
2019-05-21T22:03:51.259Z,11.30
2019-05-21T22:06:23.847Z,11.30
2019-05-21T22:08:54.691Z,11.30
2019-05-21T22:11:27.566Z,11.30
2019-05-21T22:13:57.783Z,11.30
2019-05-21T22:16:27.875Z,11.30
2019-05-21T22:18:57.861Z,11.30
2019-05-21T22:21:28.213Z,11.30
2019-05-21T22:23:59.604Z,11.30
2019-05-21T22:26:29.427Z,11.30
2019-05-21T22:28:59.935Z,11.30
2019-05-21T22:31:29.796Z,11.30
2019-05-21T22:34:22.982Z,11.30
2019-05-21T22:36:57.242Z,11.30
2019-05-21T22:39:31.798Z,11.30
2019-05-21T22:42:04.286Z,11.30
2019-05-21T22:44:37.585Z,11.30
2019-05-21T22:47:10.439Z,11.30
2019-05-21T22:49:43.269Z,11.40
2019-05-21T22:52:13.571Z,11.30
2019-05-21T22:54:47.969Z,11.30
2019-05-21T22:57:18.765Z,11.30
2019-05-21T22:59:48.237Z,11.30
2019-05-21T23:02:22.860Z,11.30
2019-05-21T23:04:53.030Z,11.30
2019-05-21T23:07:23.223Z,11.30
2019-05-21T23:09:56.041Z,11.30
2019-05-21T23:12:30.569Z,11.30
2019-05-21T23:15:01.192Z,11.30
2019-05-21T23:17:31.970Z,11.30
2019-05-21T23:20:02.206Z,11.20
2019-05-21T23:22:31.861Z,11.20
2019-05-21T23:25:02.714Z,11.20
2019-05-21T23:27:32.520Z,11.20
2019-05-21T23:32:55.192Z,11.20
2019-05-21T23:35:26.423Z,11.20
2019-05-21T23:37:58.715Z,11.20
2019-05-21T23:40:30.495Z,11.20
2019-05-21T23:43:04.138Z,11.20
2019-05-21T23:45:35.348Z,11.20
2019-05-21T23:48:10.610Z,11.20
2019-05-21T23:50:42.911Z,11.20
2019-05-21T23:53:14.300Z,11.20
2019-05-21T23:55:45.629Z,11.10
2019-05-21T23:58:15.641Z,11.10
